sensor_id;sensor_type;location;lat;lon;timestamp;P1;durP1;ratioP1;P2;durP2;ratioP2
77854;SDS011;67046;50.088;14.336;2023-04-25T00:00:31;5.30;;;2.40;;
77854;SDS011;67046;50.088;14.336;2023-04-25T00:01:25;2.60;;;2.20;;
77854;SDS011;67046;50.088;14.336;2023-04-25T00:01:58;3.70;;;2.20;;
77854;SDS011;67046;50.088;14.336;2023-04-25T00:02:30;3.10;;;2.10;;
77854;SDS011;67046;50.088;14.336;2023-04-25T00:03:03;6.00;;;3.00;;
77854;SDS011;67046;50.088;14.336;2023-04-25T00:03:36;4.10;;;2.50;;
77854;SDS011;67046;50.088;14.336;2023-04-25T00:04:08;3.30;;;2.10;;
77854;SDS011;67046;50.088;14.336;2023-04-25T00:04:40;3.90;;;2.30;;
77854;SDS011;67046;50.088;14.336;2023-04-25T00:05:12;4.00;;;2.80;;
77854;SDS011;67046;50.088;14.336;2023-04-25T00:05:45;4.90;;;2.70;;
77854;SDS011;67046;50.088;14.336;2023-04-25T00:06:17;3.60;;;2.70;;
77854;SDS011;67046;50.088;14.336;2023-04-25T00:06:51;4.90;;;2.80;;
77854;SDS011;67046;50.088;14.336;2023-04-25T00:07:24;4.00;;;3.10;;
77854;SDS011;67046;50.088;14.336;2023-04-25T00:07:56;3.80;;;2.60;;
77854;SDS011;67046;50.088;14.336;2023-04-25T00:08:29;3.70;;;2.80;;
77854;SDS011;67046;50.088;14.336;2023-04-25T00:09:02;4.10;;;2.50;;
77854;SDS011;67046;50.088;14.336;2023-04-25T00:09:34;3.60;;;2.60;;
77854;SDS011;67046;50.088;14.336;2023-04-25T00:10:06;4.10;;;2.70;;
77854;SDS011;67046;50.088;14.336;2023-04-25T00:11:09;4.90;;;2.90;;
77854;SDS011;67046;50.088;14.336;2023-04-25T00:11:41;3.60;;;2.90;;
77854;SDS011;67046;50.088;14.336;2023-04-25T00:12:12;3.20;;;2.80;;
77854;SDS011;67046;50.088;14.336;2023-04-25T00:12:43;3.50;;;2.70;;
77854;SDS011;67046;50.088;14.336;2023-04-25T00:13:15;3.80;;;2.60;;
77854;SDS011;67046;50.088;14.336;2023-04-25T00:13:48;3.60;;;2.40;;
77854;SDS011;67046;50.088;14.336;2023-04-25T00:14:21;5.10;;;2.40;;
77854;SDS011;67046;50.088;14.336;2023-04-25T00:14:54;3.80;;;2.80;;
77854;SDS011;67046;50.088;14.336;2023-04-25T00:15:27;4.90;;;2.50;;
77854;SDS011;67046;50.088;14.336;2023-04-25T00:16:01;3.40;;;2.50;;
77854;SDS011;67046;50.088;14.336;2023-04-25T00:16:33;4.40;;;2.80;;
77854;SDS011;67046;50.088;14.336;2023-04-25T00:17:36;3.20;;;2.20;;
77854;SDS011;67046;50.088;14.336;2023-04-25T00:18:40;3.90;;;2.60;;
77854;SDS011;67046;50.088;14.336;2023-04-25T00:19:12;3.80;;;2.30;;
77854;SDS011;67046;50.088;14.336;2023-04-25T00:19:44;3.60;;;2.40;;
77854;SDS011;67046;50.088;14.336;2023-04-25T00:20:17;4.10;;;2.60;;
77854;SDS011;67046;50.088;14.336;2023-04-25T00:20:48;3.80;;;2.50;;
77854;SDS011;67046;50.088;14.336;2023-04-25T00:21:20;5.50;;;3.00;;
77854;SDS011;67046;50.088;14.336;2023-04-25T00:22:24;5.00;;;2.90;;
77854;SDS011;67046;50.088;14.336;2023-04-25T00:22:55;4.30;;;2.30;;
77854;SDS011;67046;50.088;14.336;2023-04-25T00:23:26;4.30;;;2.90;;
77854;SDS011;67046;50.088;14.336;2023-04-25T00:23:59;3.90;;;2.60;;
77854;SDS011;67046;50.088;14.336;2023-04-25T00:24:31;3.50;;;2.40;;
77854;SDS011;67046;50.088;14.336;2023-04-25T00:25:05;4.30;;;2.30;;
77854;SDS011;67046;50.088;14.336;2023-04-25T00:25:37;6.30;;;2.80;;
77854;SDS011;67046;50.088;14.336;2023-04-25T00:26:09;3.50;;;2.30;;
77854;SDS011;67046;50.088;14.336;2023-04-25T00:26:40;3.20;;;2.60;;
77854;SDS011;67046;50.088;14.336;2023-04-25T00:27:11;4.50;;;2.40;;
77854;SDS011;67046;50.088;14.336;2023-04-25T00:27:43;3.20;;;2.30;;
77854;SDS011;67046;50.088;14.336;2023-04-25T00:28:14;4.20;;;2.80;;
77854;SDS011;67046;50.088;14.336;2023-04-25T00:28:46;3.90;;;2.90;;
77854;SDS011;67046;50.088;14.336;2023-04-25T00:29:49;3.90;;;2.30;;
77854;SDS011;67046;50.088;14.336;2023-04-25T00:30:21;3.80;;;2.50;;
77854;SDS011;67046;50.088;14.336;2023-04-25T00:30:53;3.80;;;2.80;;
77854;SDS011;67046;50.088;14.336;2023-04-25T00:31:24;3.80;;;2.80;;
77854;SDS011;67046;50.088;14.336;2023-04-25T00:31:55;5.30;;;2.60;;
77854;SDS011;67046;50.088;14.336;2023-04-25T00:32:26;3.70;;;2.40;;
77854;SDS011;67046;50.088;14.336;2023-04-25T00:32:58;3.50;;;2.60;;
77854;SDS011;67046;50.088;14.336;2023-04-25T00:33:29;3.80;;;2.40;;
77854;SDS011;67046;50.088;14.336;2023-04-25T00:34:00;3.10;;;2.30;;
77854;SDS011;67046;50.088;14.336;2023-04-25T00:34:32;3.00;;;2.30;;
77854;SDS011;67046;50.088;14.336;2023-04-25T00:35:03;4.40;;;2.60;;
77854;SDS011;67046;50.088;14.336;2023-04-25T00:35:35;4.60;;;2.50;;
77854;SDS011;67046;50.088;14.336;2023-04-25T00:36:07;4.30;;;2.70;;
77854;SDS011;67046;50.088;14.336;2023-04-25T00:36:39;4.10;;;2.60;;
77854;SDS011;67046;50.088;14.336;2023-04-25T00:37:11;4.00;;;2.50;;
77854;SDS011;67046;50.088;14.336;2023-04-25T00:37:42;3.30;;;2.60;;
77854;SDS011;67046;50.088;14.336;2023-04-25T00:38:14;3.50;;;2.50;;
77854;SDS011;67046;50.088;14.336;2023-04-25T00:38:46;3.30;;;2.40;;
77854;SDS011;67046;50.088;14.336;2023-04-25T00:39:17;4.80;;;2.80;;
77854;SDS011;67046;50.088;14.336;2023-04-25T00:39:48;3.40;;;2.60;;
77854;SDS011;67046;50.088;14.336;2023-04-25T00:40:20;3.40;;;2.30;;
77854;SDS011;67046;50.088;14.336;2023-04-25T00:40:52;4.20;;;2.70;;
77854;SDS011;67046;50.088;14.336;2023-04-25T00:41:25;4.70;;;2.70;;
77854;SDS011;67046;50.088;14.336;2023-04-25T00:41:57;3.80;;;2.60;;
77854;SDS011;67046;50.088;14.336;2023-04-25T00:42:29;3.70;;;2.60;;
77854;SDS011;67046;50.088;14.336;2023-04-25T00:43:02;3.20;;;2.20;;
77854;SDS011;67046;50.088;14.336;2023-04-25T00:43:33;3.80;;;2.50;;
77854;SDS011;67046;50.088;14.336;2023-04-25T00:44:08;4.20;;;2.30;;
77854;SDS011;67046;50.088;14.336;2023-04-25T00:44:42;4.60;;;2.50;;
77854;SDS011;67046;50.088;14.336;2023-04-25T00:45:15;3.50;;;2.50;;
77854;SDS011;67046;50.088;14.336;2023-04-25T00:45:48;3.10;;;2.60;;
77854;SDS011;67046;50.088;14.336;2023-04-25T00:46:21;4.70;;;2.20;;
77854;SDS011;67046;50.088;14.336;2023-04-25T00:46:53;3.80;;;2.20;;
77854;SDS011;67046;50.088;14.336;2023-04-25T00:47:25;3.10;;;2.50;;
77854;SDS011;67046;50.088;14.336;2023-04-25T00:47:56;3.60;;;2.60;;
77854;SDS011;67046;50.088;14.336;2023-04-25T00:48:28;4.40;;;2.60;;
77854;SDS011;67046;50.088;14.336;2023-04-25T00:48:59;3.70;;;2.40;;
77854;SDS011;67046;50.088;14.336;2023-04-25T00:49:30;4.40;;;2.60;;
77854;SDS011;67046;50.088;14.336;2023-04-25T00:50:02;3.60;;;2.70;;
77854;SDS011;67046;50.088;14.336;2023-04-25T00:50:33;5.10;;;2.60;;
77854;SDS011;67046;50.088;14.336;2023-04-25T00:51:06;5.00;;;2.70;;
77854;SDS011;67046;50.088;14.336;2023-04-25T00:51:37;5.30;;;2.90;;
77854;SDS011;67046;50.088;14.336;2023-04-25T00:52:09;3.20;;;2.60;;
77854;SDS011;67046;50.088;14.336;2023-04-25T00:52:43;4.70;;;2.40;;
77854;SDS011;67046;50.088;14.336;2023-04-25T00:53:16;4.10;;;2.50;;
77854;SDS011;67046;50.088;14.336;2023-04-25T00:53:48;6.10;;;2.60;;
77854;SDS011;67046;50.088;14.336;2023-04-25T00:54:20;4.50;;;2.80;;
77854;SDS011;67046;50.088;14.336;2023-04-25T00:54:52;3.60;;;2.80;;
77854;SDS011;67046;50.088;14.336;2023-04-25T00:55:24;4.70;;;2.50;;
77854;SDS011;67046;50.088;14.336;2023-04-25T00:55:55;4.80;;;2.60;;
77854;SDS011;67046;50.088;14.336;2023-04-25T00:56:27;5.30;;;2.80;;
77854;SDS011;67046;50.088;14.336;2023-04-25T00:56:58;4.00;;;3.20;;
77854;SDS011;67046;50.088;14.336;2023-04-25T00:57:31;4.90;;;2.70;;
77854;SDS011;67046;50.088;14.336;2023-04-25T00:58:03;5.00;;;2.70;;
77854;SDS011;67046;50.088;14.336;2023-04-25T00:58:34;5.30;;;2.60;;
77854;SDS011;67046;50.088;14.336;2023-04-25T00:59:05;6.20;;;3.00;;
77854;SDS011;67046;50.088;14.336;2023-04-25T00:59:37;4.60;;;2.80;;
77854;SDS011;67046;50.088;14.336;2023-04-25T01:00:10;4.70;;;2.80;;
77854;SDS011;67046;50.088;14.336;2023-04-25T01:00:41;5.20;;;2.70;;
77854;SDS011;67046;50.088;14.336;2023-04-25T01:01:13;4.50;;;2.90;;
77854;SDS011;67046;50.088;14.336;2023-04-25T01:01:44;4.10;;;2.60;;
77854;SDS011;67046;50.088;14.336;2023-04-25T01:02:16;5.30;;;2.80;;
77854;SDS011;67046;50.088;14.336;2023-04-25T01:02:48;5.10;;;3.00;;
77854;SDS011;67046;50.088;14.336;2023-04-25T01:03:20;5.40;;;2.90;;
77854;SDS011;67046;50.088;14.336;2023-04-25T01:03:52;3.90;;;3.30;;
77854;SDS011;67046;50.088;14.336;2023-04-25T01:04:26;4.70;;;3.00;;
77854;SDS011;67046;50.088;14.336;2023-04-25T01:04:58;5.20;;;2.80;;
77854;SDS011;67046;50.088;14.336;2023-04-25T01:05:29;5.00;;;3.10;;
77854;SDS011;67046;50.088;14.336;2023-04-25T01:06:01;5.20;;;3.30;;
77854;SDS011;67046;50.088;14.336;2023-04-25T01:06:33;4.80;;;3.00;;
77854;SDS011;67046;50.088;14.336;2023-04-25T01:07:05;3.90;;;3.00;;
77854;SDS011;67046;50.088;14.336;2023-04-25T01:07:36;3.20;;;2.80;;
77854;SDS011;67046;50.088;14.336;2023-04-25T01:08:08;5.40;;;3.20;;
77854;SDS011;67046;50.088;14.336;2023-04-25T01:08:40;5.80;;;3.10;;
77854;SDS011;67046;50.088;14.336;2023-04-25T01:09:12;5.10;;;2.90;;
77854;SDS011;67046;50.088;14.336;2023-04-25T01:09:44;3.50;;;2.30;;
77854;SDS011;67046;50.088;14.336;2023-04-25T01:10:16;4.90;;;3.60;;
77854;SDS011;67046;50.088;14.336;2023-04-25T01:10:47;4.50;;;3.20;;
77854;SDS011;67046;50.088;14.336;2023-04-25T01:11:19;4.40;;;2.80;;
77854;SDS011;67046;50.088;14.336;2023-04-25T01:11:50;4.10;;;3.30;;
77854;SDS011;67046;50.088;14.336;2023-04-25T01:12:22;4.50;;;2.70;;
77854;SDS011;67046;50.088;14.336;2023-04-25T01:12:54;4.30;;;3.30;;
77854;SDS011;67046;50.088;14.336;2023-04-25T01:13:26;5.10;;;3.60;;
77854;SDS011;67046;50.088;14.336;2023-04-25T01:13:57;4.40;;;3.40;;
77854;SDS011;67046;50.088;14.336;2023-04-25T01:14:29;4.60;;;3.20;;
77854;SDS011;67046;50.088;14.336;2023-04-25T01:15:01;4.90;;;3.20;;
77854;SDS011;67046;50.088;14.336;2023-04-25T01:15:32;4.00;;;2.80;;
77854;SDS011;67046;50.088;14.336;2023-04-25T01:16:04;4.10;;;3.50;;
77854;SDS011;67046;50.088;14.336;2023-04-25T01:16:35;5.00;;;3.30;;
77854;SDS011;67046;50.088;14.336;2023-04-25T01:17:08;3.90;;;2.80;;
77854;SDS011;67046;50.088;14.336;2023-04-25T01:17:40;4.30;;;2.90;;
77854;SDS011;67046;50.088;14.336;2023-04-25T01:18:13;4.10;;;2.80;;
77854;SDS011;67046;50.088;14.336;2023-04-25T01:19:17;4.10;;;2.70;;
77854;SDS011;67046;50.088;14.336;2023-04-25T01:19:50;5.20;;;3.30;;
77854;SDS011;67046;50.088;14.336;2023-04-25T01:20:22;5.30;;;3.20;;
77854;SDS011;67046;50.088;14.336;2023-04-25T01:21:02;6.20;;;3.20;;
77854;SDS011;67046;50.088;14.336;2023-04-25T01:21:41;4.70;;;3.10;;
77854;SDS011;67046;50.088;14.336;2023-04-25T01:22:14;4.60;;;2.90;;
77854;SDS011;67046;50.088;14.336;2023-04-25T01:22:46;4.50;;;3.50;;
77854;SDS011;67046;50.088;14.336;2023-04-25T01:23:18;5.70;;;3.40;;
77854;SDS011;67046;50.088;14.336;2023-04-25T01:23:53;5.80;;;3.30;;
77854;SDS011;67046;50.088;14.336;2023-04-25T01:24:25;5.10;;;3.00;;
77854;SDS011;67046;50.088;14.336;2023-04-25T01:24:57;4.50;;;3.20;;
77854;SDS011;67046;50.088;14.336;2023-04-25T01:25:30;5.10;;;3.30;;
77854;SDS011;67046;50.088;14.336;2023-04-25T01:26:01;4.10;;;3.10;;
77854;SDS011;67046;50.088;14.336;2023-04-25T01:26:33;6.00;;;3.80;;
77854;SDS011;67046;50.088;14.336;2023-04-25T01:27:06;4.70;;;3.20;;
77854;SDS011;67046;50.088;14.336;2023-04-25T01:27:38;4.10;;;3.20;;
77854;SDS011;67046;50.088;14.336;2023-04-25T01:28:41;4.80;;;2.90;;
77854;SDS011;67046;50.088;14.336;2023-04-25T01:29:13;7.90;;;3.90;;
77854;SDS011;67046;50.088;14.336;2023-04-25T01:29:44;6.90;;;3.60;;
77854;SDS011;67046;50.088;14.336;2023-04-25T01:30:16;5.30;;;3.30;;
77854;SDS011;67046;50.088;14.336;2023-04-25T01:30:48;6.60;;;3.20;;
77854;SDS011;67046;50.088;14.336;2023-04-25T01:31:21;4.40;;;3.00;;
77854;SDS011;67046;50.088;14.336;2023-04-25T01:31:52;5.40;;;3.10;;
77854;SDS011;67046;50.088;14.336;2023-04-25T01:32:24;4.50;;;3.50;;
77854;SDS011;67046;50.088;14.336;2023-04-25T01:32:56;5.00;;;2.90;;
77854;SDS011;67046;50.088;14.336;2023-04-25T01:33:28;5.00;;;3.30;;
77854;SDS011;67046;50.088;14.336;2023-04-25T01:34:00;5.40;;;3.50;;
77854;SDS011;67046;50.088;14.336;2023-04-25T01:34:32;6.80;;;3.70;;
77854;SDS011;67046;50.088;14.336;2023-04-25T01:35:06;6.20;;;3.90;;
77854;SDS011;67046;50.088;14.336;2023-04-25T01:35:40;5.00;;;3.40;;
77854;SDS011;67046;50.088;14.336;2023-04-25T01:36:11;8.00;;;3.70;;
77854;SDS011;67046;50.088;14.336;2023-04-25T01:36:43;4.50;;;3.50;;
77854;SDS011;67046;50.088;14.336;2023-04-25T01:37:16;5.90;;;3.20;;
77854;SDS011;67046;50.088;14.336;2023-04-25T01:37:48;4.60;;;3.60;;
77854;SDS011;67046;50.088;14.336;2023-04-25T01:38:20;4.30;;;3.30;;
77854;SDS011;67046;50.088;14.336;2023-04-25T01:38:52;5.10;;;3.50;;
77854;SDS011;67046;50.088;14.336;2023-04-25T01:39:23;5.40;;;3.10;;
77854;SDS011;67046;50.088;14.336;2023-04-25T01:39:55;4.40;;;2.90;;
77854;SDS011;67046;50.088;14.336;2023-04-25T01:40:27;7.50;;;4.00;;
77854;SDS011;67046;50.088;14.336;2023-04-25T01:40:58;5.60;;;3.90;;
77854;SDS011;67046;50.088;14.336;2023-04-25T01:41:30;5.90;;;4.10;;
77854;SDS011;67046;50.088;14.336;2023-04-25T01:42:02;4.10;;;3.20;;
77854;SDS011;67046;50.088;14.336;2023-04-25T01:42:34;5.90;;;3.80;;
77854;SDS011;67046;50.088;14.336;2023-04-25T01:43:07;6.80;;;3.40;;
77854;SDS011;67046;50.088;14.336;2023-04-25T01:43:41;4.60;;;3.30;;
77854;SDS011;67046;50.088;14.336;2023-04-25T01:44:13;5.70;;;3.50;;
77854;SDS011;67046;50.088;14.336;2023-04-25T01:44:45;5.10;;;3.60;;
77854;SDS011;67046;50.088;14.336;2023-04-25T01:45:17;7.50;;;4.00;;
77854;SDS011;67046;50.088;14.336;2023-04-25T01:45:49;7.90;;;3.80;;
77854;SDS011;67046;50.088;14.336;2023-04-25T01:46:21;5.80;;;3.70;;
77854;SDS011;67046;50.088;14.336;2023-04-25T01:46:52;6.00;;;4.00;;
77854;SDS011;67046;50.088;14.336;2023-04-25T01:47:24;6.50;;;3.70;;
77854;SDS011;67046;50.088;14.336;2023-04-25T01:47:56;6.60;;;4.50;;
77854;SDS011;67046;50.088;14.336;2023-04-25T01:48:30;4.80;;;3.50;;
77854;SDS011;67046;50.088;14.336;2023-04-25T01:49:01;6.50;;;4.00;;
77854;SDS011;67046;50.088;14.336;2023-04-25T01:49:33;5.20;;;3.60;;
77854;SDS011;67046;50.088;14.336;2023-04-25T01:50:05;4.70;;;3.70;;
77854;SDS011;67046;50.088;14.336;2023-04-25T01:50:38;7.60;;;4.00;;
77854;SDS011;67046;50.088;14.336;2023-04-25T01:51:11;6.50;;;3.90;;
77854;SDS011;67046;50.088;14.336;2023-04-25T01:51:43;4.40;;;3.60;;
77854;SDS011;67046;50.088;14.336;2023-04-25T01:52:46;5.30;;;3.50;;
77854;SDS011;67046;50.088;14.336;2023-04-25T01:53:18;4.90;;;3.60;;
77854;SDS011;67046;50.088;14.336;2023-04-25T01:53:49;5.50;;;3.80;;
77854;SDS011;67046;50.088;14.336;2023-04-25T01:54:21;5.90;;;4.20;;
77854;SDS011;67046;50.088;14.336;2023-04-25T01:54:52;6.70;;;3.60;;
77854;SDS011;67046;50.088;14.336;2023-04-25T01:55:24;4.70;;;4.10;;
77854;SDS011;67046;50.088;14.336;2023-04-25T01:55:55;5.90;;;4.00;;
77854;SDS011;67046;50.088;14.336;2023-04-25T01:56:30;11.20;;;4.90;;
77854;SDS011;67046;50.088;14.336;2023-04-25T01:57:02;5.40;;;3.80;;
77854;SDS011;67046;50.088;14.336;2023-04-25T01:57:34;5.70;;;4.30;;
77854;SDS011;67046;50.088;14.336;2023-04-25T01:58:05;6.00;;;4.20;;
77854;SDS011;67046;50.088;14.336;2023-04-25T01:58:43;6.40;;;4.20;;
77854;SDS011;67046;50.088;14.336;2023-04-25T01:59:15;5.40;;;3.80;;
77854;SDS011;67046;50.088;14.336;2023-04-25T01:59:46;8.00;;;4.30;;
77854;SDS011;67046;50.088;14.336;2023-04-25T02:00:18;5.90;;;3.90;;
77854;SDS011;67046;50.088;14.336;2023-04-25T02:00:49;5.50;;;4.00;;
77854;SDS011;67046;50.088;14.336;2023-04-25T02:01:20;5.40;;;3.90;;
77854;SDS011;67046;50.088;14.336;2023-04-25T02:01:52;6.10;;;4.10;;
77854;SDS011;67046;50.088;14.336;2023-04-25T02:02:23;6.40;;;4.70;;
77854;SDS011;67046;50.088;14.336;2023-04-25T02:02:57;6.90;;;4.60;;
77854;SDS011;67046;50.088;14.336;2023-04-25T02:03:30;7.30;;;4.60;;
77854;SDS011;67046;50.088;14.336;2023-04-25T02:04:04;8.40;;;5.00;;
77854;SDS011;67046;50.088;14.336;2023-04-25T02:04:35;6.20;;;4.00;;
77854;SDS011;67046;50.088;14.336;2023-04-25T02:05:06;8.40;;;4.30;;
77854;SDS011;67046;50.088;14.336;2023-04-25T02:05:38;5.50;;;4.30;;
77854;SDS011;67046;50.088;14.336;2023-04-25T02:06:11;6.30;;;4.30;;
77854;SDS011;67046;50.088;14.336;2023-04-25T02:06:42;5.60;;;3.70;;
77854;SDS011;67046;50.088;14.336;2023-04-25T02:07:13;4.70;;;4.00;;
77854;SDS011;67046;50.088;14.336;2023-04-25T02:07:44;5.70;;;4.00;;
77854;SDS011;67046;50.088;14.336;2023-04-25T02:08:16;6.30;;;4.30;;
77854;SDS011;67046;50.088;14.336;2023-04-25T02:08:48;7.60;;;4.80;;
77854;SDS011;67046;50.088;14.336;2023-04-25T02:09:19;6.50;;;4.40;;
77854;SDS011;67046;50.088;14.336;2023-04-25T02:09:50;5.90;;;5.10;;
77854;SDS011;67046;50.088;14.336;2023-04-25T02:10:22;5.30;;;3.60;;
77854;SDS011;67046;50.088;14.336;2023-04-25T02:11:25;6.70;;;4.00;;
77854;SDS011;67046;50.088;14.336;2023-04-25T02:11:57;6.60;;;4.10;;
77854;SDS011;67046;50.088;14.336;2023-04-25T02:12:28;6.50;;;4.80;;
77854;SDS011;67046;50.088;14.336;2023-04-25T02:13:00;6.90;;;4.00;;
77854;SDS011;67046;50.088;14.336;2023-04-25T02:13:32;5.80;;;3.80;;
77854;SDS011;67046;50.088;14.336;2023-04-25T02:14:04;5.80;;;4.10;;
77854;SDS011;67046;50.088;14.336;2023-04-25T02:14:35;5.70;;;4.30;;
77854;SDS011;67046;50.088;14.336;2023-04-25T02:15:06;6.80;;;4.60;;
77854;SDS011;67046;50.088;14.336;2023-04-25T02:15:38;5.60;;;4.20;;
77854;SDS011;67046;50.088;14.336;2023-04-25T02:16:09;5.50;;;4.50;;
77854;SDS011;67046;50.088;14.336;2023-04-25T02:16:40;5.90;;;3.90;;
77854;SDS011;67046;50.088;14.336;2023-04-25T02:17:14;8.40;;;5.20;;
77854;SDS011;67046;50.088;14.336;2023-04-25T02:18:17;6.40;;;3.90;;
77854;SDS011;67046;50.088;14.336;2023-04-25T02:18:49;6.50;;;4.20;;
77854;SDS011;67046;50.088;14.336;2023-04-25T02:19:23;7.00;;;4.00;;
77854;SDS011;67046;50.088;14.336;2023-04-25T02:19:54;5.40;;;3.70;;
77854;SDS011;67046;50.088;14.336;2023-04-25T02:20:26;5.60;;;4.10;;
77854;SDS011;67046;50.088;14.336;2023-04-25T02:20:59;6.10;;;4.10;;
77854;SDS011;67046;50.088;14.336;2023-04-25T02:21:32;7.50;;;4.30;;
77854;SDS011;67046;50.088;14.336;2023-04-25T02:22:06;5.90;;;4.30;;
77854;SDS011;67046;50.088;14.336;2023-04-25T02:22:38;6.20;;;3.90;;
77854;SDS011;67046;50.088;14.336;2023-04-25T02:23:09;6.00;;;4.30;;
77854;SDS011;67046;50.088;14.336;2023-04-25T02:23:40;7.80;;;4.70;;
77854;SDS011;67046;50.088;14.336;2023-04-25T02:24:12;5.60;;;3.80;;
77854;SDS011;67046;50.088;14.336;2023-04-25T02:24:43;5.10;;;4.20;;
77854;SDS011;67046;50.088;14.336;2023-04-25T02:25:14;5.80;;;4.20;;
77854;SDS011;67046;50.088;14.336;2023-04-25T02:26:18;5.60;;;4.00;;
77854;SDS011;67046;50.088;14.336;2023-04-25T02:26:49;5.80;;;4.30;;
77854;SDS011;67046;50.088;14.336;2023-04-25T02:27:20;5.40;;;3.90;;
77854;SDS011;67046;50.088;14.336;2023-04-25T02:27:51;5.80;;;4.70;;
77854;SDS011;67046;50.088;14.336;2023-04-25T02:28:23;5.70;;;4.20;;
77854;SDS011;67046;50.088;14.336;2023-04-25T02:28:56;5.80;;;3.70;;
77854;SDS011;67046;50.088;14.336;2023-04-25T02:29:28;7.90;;;4.50;;
77854;SDS011;67046;50.088;14.336;2023-04-25T02:30:00;6.20;;;4.40;;
77854;SDS011;67046;50.088;14.336;2023-04-25T02:30:31;5.60;;;4.50;;
77854;SDS011;67046;50.088;14.336;2023-04-25T02:31:03;7.70;;;4.40;;
77854;SDS011;67046;50.088;14.336;2023-04-25T02:31:34;7.40;;;4.50;;
77854;SDS011;67046;50.088;14.336;2023-04-25T02:32:05;6.70;;;4.40;;
77854;SDS011;67046;50.088;14.336;2023-04-25T02:32:37;5.40;;;3.80;;
77854;SDS011;67046;50.088;14.336;2023-04-25T02:33:09;5.80;;;4.10;;
77854;SDS011;67046;50.088;14.336;2023-04-25T02:33:41;5.70;;;4.10;;
77854;SDS011;67046;50.088;14.336;2023-04-25T02:34:12;7.00;;;4.60;;
77854;SDS011;67046;50.088;14.336;2023-04-25T02:34:43;6.10;;;4.30;;
77854;SDS011;67046;50.088;14.336;2023-04-25T02:35:15;5.90;;;4.50;;
77854;SDS011;67046;50.088;14.336;2023-04-25T02:35:47;6.40;;;4.70;;
77854;SDS011;67046;50.088;14.336;2023-04-25T02:36:18;7.30;;;4.60;;
77854;SDS011;67046;50.088;14.336;2023-04-25T02:36:49;5.60;;;4.30;;
77854;SDS011;67046;50.088;14.336;2023-04-25T02:37:23;8.00;;;4.90;;
77854;SDS011;67046;50.088;14.336;2023-04-25T02:37:55;7.80;;;4.60;;
77854;SDS011;67046;50.088;14.336;2023-04-25T02:38:26;5.80;;;3.90;;
77854;SDS011;67046;50.088;14.336;2023-04-25T02:38:57;7.60;;;4.70;;
77854;SDS011;67046;50.088;14.336;2023-04-25T02:39:28;7.20;;;4.50;;
77854;SDS011;67046;50.088;14.336;2023-04-25T02:40:00;6.50;;;4.50;;
77854;SDS011;67046;50.088;14.336;2023-04-25T02:41:03;6.30;;;3.80;;
77854;SDS011;67046;50.088;14.336;2023-04-25T02:41:34;6.10;;;4.10;;
77854;SDS011;67046;50.088;14.336;2023-04-25T02:42:05;6.70;;;4.60;;
77854;SDS011;67046;50.088;14.336;2023-04-25T02:42:37;6.50;;;4.80;;
77854;SDS011;67046;50.088;14.336;2023-04-25T02:43:08;5.80;;;5.00;;
77854;SDS011;67046;50.088;14.336;2023-04-25T02:43:39;6.90;;;4.60;;
77854;SDS011;67046;50.088;14.336;2023-04-25T02:44:10;7.30;;;4.70;;
77854;SDS011;67046;50.088;14.336;2023-04-25T02:44:42;7.20;;;4.70;;
77854;SDS011;67046;50.088;14.336;2023-04-25T02:45:13;6.90;;;4.50;;
77854;SDS011;67046;50.088;14.336;2023-04-25T02:45:45;6.20;;;4.40;;
77854;SDS011;67046;50.088;14.336;2023-04-25T02:46:16;8.40;;;4.50;;
77854;SDS011;67046;50.088;14.336;2023-04-25T02:46:47;5.70;;;4.10;;
77854;SDS011;67046;50.088;14.336;2023-04-25T02:47:18;5.40;;;4.00;;
77854;SDS011;67046;50.088;14.336;2023-04-25T02:47:50;6.20;;;4.20;;
77854;SDS011;67046;50.088;14.336;2023-04-25T02:48:21;6.60;;;4.90;;
77854;SDS011;67046;50.088;14.336;2023-04-25T02:48:52;6.30;;;4.60;;
77854;SDS011;67046;50.088;14.336;2023-04-25T02:49:24;5.40;;;3.90;;
77854;SDS011;67046;50.088;14.336;2023-04-25T02:49:55;6.80;;;4.60;;
77854;SDS011;67046;50.088;14.336;2023-04-25T02:50:26;6.90;;;4.60;;
77854;SDS011;67046;50.088;14.336;2023-04-25T02:50:57;6.70;;;4.60;;
77854;SDS011;67046;50.088;14.336;2023-04-25T02:51:29;5.20;;;4.00;;
77854;SDS011;67046;50.088;14.336;2023-04-25T02:52:01;7.40;;;4.80;;
77854;SDS011;67046;50.088;14.336;2023-04-25T02:52:32;6.00;;;4.20;;
77854;SDS011;67046;50.088;14.336;2023-04-25T02:53:03;7.80;;;4.60;;
77854;SDS011;67046;50.088;14.336;2023-04-25T02:53:35;5.70;;;4.60;;
77854;SDS011;67046;50.088;14.336;2023-04-25T02:54:06;5.30;;;4.30;;
77854;SDS011;67046;50.088;14.336;2023-04-25T02:54:38;5.90;;;4.10;;
77854;SDS011;67046;50.088;14.336;2023-04-25T02:55:11;6.50;;;4.40;;
77854;SDS011;67046;50.088;14.336;2023-04-25T02:55:43;8.00;;;4.90;;
77854;SDS011;67046;50.088;14.336;2023-04-25T02:56:15;7.30;;;4.20;;
77854;SDS011;67046;50.088;14.336;2023-04-25T02:56:46;6.10;;;4.20;;
77854;SDS011;67046;50.088;14.336;2023-04-25T02:57:18;5.60;;;4.20;;
77854;SDS011;67046;50.088;14.336;2023-04-25T02:57:49;7.40;;;4.30;;
77854;SDS011;67046;50.088;14.336;2023-04-25T02:58:21;6.30;;;4.90;;
77854;SDS011;67046;50.088;14.336;2023-04-25T02:58:52;5.10;;;4.10;;
77854;SDS011;67046;50.088;14.336;2023-04-25T02:59:24;5.80;;;4.60;;
77854;SDS011;67046;50.088;14.336;2023-04-25T02:59:55;7.40;;;4.60;;
77854;SDS011;67046;50.088;14.336;2023-04-25T03:00:27;6.10;;;4.90;;
77854;SDS011;67046;50.088;14.336;2023-04-25T03:00:58;7.40;;;4.80;;
77854;SDS011;67046;50.088;14.336;2023-04-25T03:01:29;7.20;;;4.50;;
77854;SDS011;67046;50.088;14.336;2023-04-25T03:02:00;6.90;;;4.50;;
77854;SDS011;67046;50.088;14.336;2023-04-25T03:02:32;8.50;;;5.50;;
77854;SDS011;67046;50.088;14.336;2023-04-25T03:03:03;6.90;;;4.70;;
77854;SDS011;67046;50.088;14.336;2023-04-25T03:03:34;8.20;;;4.50;;
77854;SDS011;67046;50.088;14.336;2023-04-25T03:04:05;8.00;;;4.40;;
77854;SDS011;67046;50.088;14.336;2023-04-25T03:04:36;6.80;;;4.80;;
77854;SDS011;67046;50.088;14.336;2023-04-25T03:05:08;7.10;;;4.70;;
77854;SDS011;67046;50.088;14.336;2023-04-25T03:05:39;5.40;;;4.30;;
77854;SDS011;67046;50.088;14.336;2023-04-25T03:06:10;6.30;;;4.50;;
77854;SDS011;67046;50.088;14.336;2023-04-25T03:06:41;8.00;;;4.80;;
77854;SDS011;67046;50.088;14.336;2023-04-25T03:07:13;6.50;;;4.30;;
77854;SDS011;67046;50.088;14.336;2023-04-25T03:07:44;7.60;;;4.60;;
77854;SDS011;67046;50.088;14.336;2023-04-25T03:08:16;7.80;;;4.60;;
77854;SDS011;67046;50.088;14.336;2023-04-25T03:09:50;8.30;;;4.50;;
77854;SDS011;67046;50.088;14.336;2023-04-25T03:10:21;9.70;;;5.10;;
77854;SDS011;67046;50.088;14.336;2023-04-25T03:10:53;6.30;;;4.10;;
77854;SDS011;67046;50.088;14.336;2023-04-25T03:11:26;5.80;;;4.60;;
77854;SDS011;67046;50.088;14.336;2023-04-25T03:11:57;6.00;;;4.70;;
77854;SDS011;67046;50.088;14.336;2023-04-25T03:12:29;6.80;;;4.40;;
77854;SDS011;67046;50.088;14.336;2023-04-25T03:13:00;7.90;;;4.60;;
77854;SDS011;67046;50.088;14.336;2023-04-25T03:13:31;7.00;;;5.10;;
77854;SDS011;67046;50.088;14.336;2023-04-25T03:14:02;6.50;;;4.80;;
77854;SDS011;67046;50.088;14.336;2023-04-25T03:14:33;6.30;;;4.20;;
77854;SDS011;67046;50.088;14.336;2023-04-25T03:15:05;6.10;;;4.70;;
77854;SDS011;67046;50.088;14.336;2023-04-25T03:15:36;6.30;;;4.60;;
77854;SDS011;67046;50.088;14.336;2023-04-25T03:16:08;8.00;;;4.60;;
77854;SDS011;67046;50.088;14.336;2023-04-25T03:16:39;7.00;;;4.90;;
77854;SDS011;67046;50.088;14.336;2023-04-25T03:17:11;5.10;;;4.40;;